sensor_id;sensor_type;location;lat;lon;timestamp;temperature;humidity
21895;DHT22;11112;51.270;7.224;2024-02-21T00:00:47;10.50;99.90
21895;DHT22;11112;51.270;7.224;2024-02-21T00:03:14;10.60;99.90
21895;DHT22;11112;51.270;7.224;2024-02-21T00:05:43;10.60;99.90
21895;DHT22;11112;51.270;7.224;2024-02-21T00:08:10;10.60;99.90
21895;DHT22;11112;51.270;7.224;2024-02-21T00:10:37;10.50;99.90
21895;DHT22;11112;51.270;7.224;2024-02-21T00:13:04;10.60;99.90
21895;DHT22;11112;51.270;7.224;2024-02-21T00:15:31;10.60;99.90
21895;DHT22;11112;51.270;7.224;2024-02-21T00:17:58;10.60;99.90
21895;DHT22;11112;51.270;7.224;2024-02-21T00:20:25;10.60;99.90
21895;DHT22;11112;51.270;7.224;2024-02-21T00:22:54;10.60;99.90
21895;DHT22;11112;51.270;7.224;2024-02-21T00:25:21;10.60;99.90
21895;DHT22;11112;51.270;7.224;2024-02-21T00:27:48;10.50;99.90
21895;DHT22;11112;51.270;7.224;2024-02-21T00:30:15;10.50;99.90
21895;DHT22;11112;51.270;7.224;2024-02-21T00:32:42;10.50;99.90
21895;DHT22;11112;51.270;7.224;2024-02-21T00:35:09;10.50;99.90
21895;DHT22;11112;51.270;7.224;2024-02-21T00:37:36;10.60;99.90
21895;DHT22;11112;51.270;7.224;2024-02-21T00:40:07;10.60;99.90
21895;DHT22;11112;51.270;7.224;2024-02-21T00:42:34;10.60;99.90
21895;DHT22;11112;51.270;7.224;2024-02-21T00:45:01;10.60;99.90
21895;DHT22;11112;51.270;7.224;2024-02-21T00:47:28;10.60;99.90
21895;DHT22;11112;51.270;7.224;2024-02-21T00:49:55;10.60;99.90
21895;DHT22;11112;51.270;7.224;2024-02-21T00:52:22;10.60;99.90
21895;DHT22;11112;51.270;7.224;2024-02-21T00:54:50;10.60;99.90
21895;DHT22;11112;51.270;7.224;2024-02-21T00:57:18;10.60;99.90
21895;DHT22;11112;51.270;7.224;2024-02-21T00:59:45;10.60;99.90
21895;DHT22;11112;51.270;7.224;2024-02-21T01:02:12;10.60;99.90
21895;DHT22;11112;51.270;7.224;2024-02-21T01:04:39;10.60;99.90
21895;DHT22;11112;51.270;7.224;2024-02-21T01:07:06;10.60;99.90
21895;DHT22;11112;51.270;7.224;2024-02-21T01:09:33;10.60;99.90
21895;DHT22;11112;51.270;7.224;2024-02-21T01:12:00;10.60;99.90
21895;DHT22;11112;51.270;7.224;2024-02-21T01:14:28;10.60;99.90
21895;DHT22;11112;51.270;7.224;2024-02-21T01:16:55;10.50;99.90
21895;DHT22;11112;51.270;7.224;2024-02-21T01:19:22;10.50;99.90
21895;DHT22;11112;51.270;7.224;2024-02-21T01:21:49;10.60;99.90
21895;DHT22;11112;51.270;7.224;2024-02-21T01:24:16;10.50;99.90
21895;DHT22;11112;51.270;7.224;2024-02-21T01:26:44;10.50;99.90
21895;DHT22;11112;51.270;7.224;2024-02-21T01:29:12;10.50;99.90
21895;DHT22;11112;51.270;7.224;2024-02-21T01:31:40;10.50;99.90
21895;DHT22;11112;51.270;7.224;2024-02-21T01:34:07;10.60;99.90
21895;DHT22;11112;51.270;7.224;2024-02-21T01:36:34;10.50;99.90
21895;DHT22;11112;51.270;7.224;2024-02-21T01:39:01;10.50;99.90
21895;DHT22;11112;51.270;7.224;2024-02-21T01:41:29;10.50;99.90
21895;DHT22;11112;51.270;7.224;2024-02-21T01:43:57;10.50;99.90
21895;DHT22;11112;51.270;7.224;2024-02-21T01:46:24;10.50;99.90
21895;DHT22;11112;51.270;7.224;2024-02-21T01:48:56;10.60;99.90
21895;DHT22;11112;51.270;7.224;2024-02-21T01:51:23;10.60;99.90
21895;DHT22;11112;51.270;7.224;2024-02-21T01:53:52;10.60;99.90
21895;DHT22;11112;51.270;7.224;2024-02-21T01:56:20;10.60;99.90
21895;DHT22;11112;51.270;7.224;2024-02-21T01:58:48;10.60;99.90
21895;DHT22;11112;51.270;7.224;2024-02-21T02:01:16;10.60;99.90
21895;DHT22;11112;51.270;7.224;2024-02-21T02:03:45;10.60;99.90
21895;DHT22;11112;51.270;7.224;2024-02-21T02:06:14;10.60;99.90
21895;DHT22;11112;51.270;7.224;2024-02-21T02:08:42;10.50;99.90
21895;DHT22;11112;51.270;7.224;2024-02-21T02:11:09;10.60;99.90
21895;DHT22;11112;51.270;7.224;2024-02-21T02:13:36;10.50;99.90
21895;DHT22;11112;51.270;7.224;2024-02-21T02:16:04;10.50;99.90
21895;DHT22;11112;51.270;7.224;2024-02-21T02:18:32;10.50;99.90
21895;DHT22;11112;51.270;7.224;2024-02-21T02:20:59;10.50;99.90
21895;DHT22;11112;51.270;7.224;2024-02-21T02:23:28;10.50;99.90
21895;DHT22;11112;51.270;7.224;2024-02-21T02:25:57;10.60;99.90
21895;DHT22;11112;51.270;7.224;2024-02-21T02:28:24;10.60;99.90
21895;DHT22;11112;51.270;7.224;2024-02-21T02:30:51;10.60;99.90
21895;DHT22;11112;51.270;7.224;2024-02-21T02:33:18;10.60;99.90
21895;DHT22;11112;51.270;7.224;2024-02-21T02:35:48;10.60;99.90
21895;DHT22;11112;51.270;7.224;2024-02-21T02:38:20;10.60;99.90
21895;DHT22;11112;51.270;7.224;2024-02-21T02:40:49;10.60;99.90
21895;DHT22;11112;51.270;7.224;2024-02-21T02:43:16;10.60;99.90
21895;DHT22;11112;51.270;7.224;2024-02-21T02:45:43;10.60;99.90
21895;DHT22;11112;51.270;7.224;2024-02-21T02:48:10;10.60;99.90
21895;DHT22;11112;51.270;7.224;2024-02-21T02:50:37;10.60;99.90
21895;DHT22;11112;51.270;7.224;2024-02-21T02:53:04;10.60;99.90
21895;DHT22;11112;51.270;7.224;2024-02-21T02:55:31;10.50;99.90
21895;DHT22;11112;51.270;7.224;2024-02-21T02:58:00;10.60;99.90
21895;DHT22;11112;51.270;7.224;2024-02-21T03:00:27;10.50;99.90
21895;DHT22;11112;51.270;7.224;2024-02-21T03:02:54;10.60;99.90
21895;DHT22;11112;51.270;7.224;2024-02-21T03:05:21;10.50;99.90
21895;DHT22;11112;51.270;7.224;2024-02-21T03:07:49;10.50;99.90
21895;DHT22;11112;51.270;7.224;2024-02-21T03:10:16;10.50;99.90
21895;DHT22;11112;51.270;7.224;2024-02-21T03:12:43;10.50;99.90
21895;DHT22;11112;51.270;7.224;2024-02-21T03:15:12;10.50;99.90
21895;DHT22;11112;51.270;7.224;2024-02-21T03:17:40;10.50;99.90
21895;DHT22;11112;51.270;7.224;2024-02-21T03:20:08;10.50;99.90
21895;DHT22;11112;51.270;7.224;2024-02-21T03:22:35;10.50;99.90
21895;DHT22;11112;51.270;7.224;2024-02-21T03:25:03;10.50;99.90
21895;DHT22;11112;51.270;7.224;2024-02-21T03:27:32;10.50;99.90
21895;DHT22;11112;51.270;7.224;2024-02-21T03:29:59;10.50;99.90
21895;DHT22;11112;51.270;7.224;2024-02-21T03:32:27;10.50;99.90
21895;DHT22;11112;51.270;7.224;2024-02-21T03:34:54;10.50;99.90
21895;DHT22;11112;51.270;7.224;2024-02-21T03:37:21;10.50;99.90
21895;DHT22;11112;51.270;7.224;2024-02-21T03:39:49;10.50;99.90
21895;DHT22;11112;51.270;7.224;2024-02-21T03:42:16;10.50;99.90
21895;DHT22;11112;51.270;7.224;2024-02-21T03:44:43;10.50;99.90
21895;DHT22;11112;51.270;7.224;2024-02-21T03:47:10;10.50;99.90
21895;DHT22;11112;51.270;7.224;2024-02-21T03:49:38;10.50;99.90
21895;DHT22;11112;51.270;7.224;2024-02-21T03:52:05;10.50;99.90
21895;DHT22;11112;51.270;7.224;2024-02-21T03:54:33;10.50;99.90
21895;DHT22;11112;51.270;7.224;2024-02-21T03:57:00;10.50;99.90
21895;DHT22;11112;51.270;7.224;2024-02-21T03:59:28;10.40;99.90
21895;DHT22;11112;51.270;7.224;2024-02-21T04:01:55;10.40;99.90
21895;DHT22;11112;51.270;7.224;2024-02-21T04:04:22;10.40;99.90
21895;DHT22;11112;51.270;7.224;2024-02-21T04:06:51;10.40;99.90
21895;DHT22;11112;51.270;7.224;2024-02-21T04:09:18;10.40;99.90
21895;DHT22;11112;51.270;7.224;2024-02-21T04:11:45;10.40;99.90
21895;DHT22;11112;51.270;7.224;2024-02-21T04:14:12;10.40;99.90
21895;DHT22;11112;51.270;7.224;2024-02-21T04:16:40;10.40;99.90
21895;DHT22;11112;51.270;7.224;2024-02-21T04:19:07;10.40;99.90
21895;DHT22;11112;51.270;7.224;2024-02-21T04:21:34;10.40;99.90
21895;DHT22;11112;51.270;7.224;2024-02-21T04:24:03;10.40;99.90
21895;DHT22;11112;51.270;7.224;2024-02-21T04:26:31;10.50;99.90
21895;DHT22;11112;51.270;7.224;2024-02-21T04:28:58;10.50;99.90
21895;DHT22;11112;51.270;7.224;2024-02-21T04:31:25;10.50;99.90
21895;DHT22;11112;51.270;7.224;2024-02-21T04:33:52;10.50;99.90
21895;DHT22;11112;51.270;7.224;2024-02-21T04:36:19;10.40;99.90
21895;DHT22;11112;51.270;7.224;2024-02-21T04:38:46;10.50;99.90
21895;DHT22;11112;51.270;7.224;2024-02-21T04:41:15;10.40;99.90
21895;DHT22;11112;51.270;7.224;2024-02-21T04:43:42;10.40;99.90
21895;DHT22;11112;51.270;7.224;2024-02-21T04:46:09;10.50;99.90
21895;DHT22;11112;51.270;7.224;2024-02-21T04:48:36;10.50;99.90
21895;DHT22;11112;51.270;7.224;2024-02-21T04:51:04;10.50;99.90
21895;DHT22;11112;51.270;7.224;2024-02-21T04:53:31;10.50;99.90
21895;DHT22;11112;51.270;7.224;2024-02-21T04:55:58;10.50;99.90
21895;DHT22;11112;51.270;7.224;2024-02-21T04:58:26;10.50;99.90
21895;DHT22;11112;51.270;7.224;2024-02-21T05:00:53;10.50;99.90
21895;DHT22;11112;51.270;7.224;2024-02-21T05:03:21;10.40;99.90
21895;DHT22;11112;51.270;7.224;2024-02-21T05:05:48;10.40;99.90
21895;DHT22;11112;51.270;7.224;2024-02-21T05:08:16;10.40;99.90
21895;DHT22;11112;51.270;7.224;2024-02-21T05:10:43;10.40;99.90
21895;DHT22;11112;51.270;7.224;2024-02-21T05:13:10;10.40;99.90
21895;DHT22;11112;51.270;7.224;2024-02-21T05:15:38;10.40;99.90
21895;DHT22;11112;51.270;7.224;2024-02-21T05:18:05;10.50;99.90
21895;DHT22;11112;51.270;7.224;2024-02-21T05:20:32;10.40;99.90
21895;DHT22;11112;51.270;7.224;2024-02-21T05:22:59;10.40;99.90
21895;DHT22;11112;51.270;7.224;2024-02-21T05:25:26;10.40;99.90
21895;DHT22;11112;51.270;7.224;2024-02-21T05:27:54;10.50;99.90
21895;DHT22;11112;51.270;7.224;2024-02-21T05:30:21;10.50;99.90
21895;DHT22;11112;51.270;7.224;2024-02-21T05:32:49;10.50;99.90
21895;DHT22;11112;51.270;7.224;2024-02-21T05:35:17;10.50;99.90
21895;DHT22;11112;51.270;7.224;2024-02-21T05:37:44;10.50;99.90
21895;DHT22;11112;51.270;7.224;2024-02-21T05:40:14;10.50;99.90
21895;DHT22;11112;51.270;7.224;2024-02-21T05:42:41;10.50;99.90
21895;DHT22;11112;51.270;7.224;2024-02-21T05:45:08;10.50;99.90
21895;DHT22;11112;51.270;7.224;2024-02-21T05:47:35;10.50;99.90
21895;DHT22;11112;51.270;7.224;2024-02-21T05:50:05;10.50;99.90
21895;DHT22;11112;51.270;7.224;2024-02-21T05:52:32;10.50;99.90
21895;DHT22;11112;51.270;7.224;2024-02-21T05:54:59;10.50;99.90
21895;DHT22;11112;51.270;7.224;2024-02-21T05:57:26;10.50;99.90
21895;DHT22;11112;51.270;7.224;2024-02-21T05:59:53;10.50;99.90
21895;DHT22;11112;51.270;7.224;2024-02-21T06:02:20;10.50;99.90
21895;DHT22;11112;51.270;7.224;2024-02-21T06:04:48;10.50;99.90
21895;DHT22;11112;51.270;7.224;2024-02-21T06:07:16;10.50;99.90
21895;DHT22;11112;51.270;7.224;2024-02-21T06:09:43;10.50;99.90
21895;DHT22;11112;51.270;7.224;2024-02-21T06:12:10;10.50;99.90
21895;DHT22;11112;51.270;7.224;2024-02-21T06:14:37;10.50;99.90
21895;DHT22;11112;51.270;7.224;2024-02-21T06:17:04;10.50;99.90
21895;DHT22;11112;51.270;7.224;2024-02-21T06:19:31;10.40;99.90
21895;DHT22;11112;51.270;7.224;2024-02-21T06:21:58;10.40;99.90
21895;DHT22;11112;51.270;7.224;2024-02-21T06:24:27;10.50;99.90
21895;DHT22;11112;51.270;7.224;2024-02-21T06:26:53;10.50;99.90
21895;DHT22;11112;51.270;7.224;2024-02-21T06:29:20;10.50;99.90
21895;DHT22;11112;51.270;7.224;2024-02-21T06:31:47;10.50;99.90
21895;DHT22;11112;51.270;7.224;2024-02-21T06:34:14;10.50;99.90
21895;DHT22;11112;51.270;7.224;2024-02-21T06:36:41;10.50;99.90
21895;DHT22;11112;51.270;7.224;2024-02-21T06:39:08;10.50;99.90
21895;DHT22;11112;51.270;7.224;2024-02-21T06:41:38;10.50;99.90
21895;DHT22;11112;51.270;7.224;2024-02-21T06:44:06;10.50;99.90
21895;DHT22;11112;51.270;7.224;2024-02-21T06:46:35;10.50;99.90
21895;DHT22;11112;51.270;7.224;2024-02-21T06:49:08;10.50;99.90
21895;DHT22;11112;51.270;7.224;2024-02-21T06:51:41;10.50;99.90
21895;DHT22;11112;51.270;7.224;2024-02-21T06:54:08;10.50;99.90
21895;DHT22;11112;51.270;7.224;2024-02-21T06:56:39;10.50;99.90
21895;DHT22;11112;51.270;7.224;2024-02-21T06:59:06;10.50;99.90
21895;DHT22;11112;51.270;7.224;2024-02-21T07:01:33;10.50;99.90
21895;DHT22;11112;51.270;7.224;2024-02-21T07:04:02;10.40;99.90
21895;DHT22;11112;51.270;7.224;2024-02-21T07:06:36;10.40;99.90
21895;DHT22;11112;51.270;7.224;2024-02-21T07:09:03;10.40;99.90
21895;DHT22;11112;51.270;7.224;2024-02-21T07:11:30;10.40;99.90
21895;DHT22;11112;51.270;7.224;2024-02-21T07:13:58;10.40;99.90
21895;DHT22;11112;51.270;7.224;2024-02-21T07:16:25;10.40;99.90
21895;DHT22;11112;51.270;7.224;2024-02-21T07:18:54;10.40;99.90
21895;DHT22;11112;51.270;7.224;2024-02-21T07:21:24;10.40;99.90
21895;DHT22;11112;51.270;7.224;2024-02-21T07:23:51;10.40;99.90
21895;DHT22;11112;51.270;7.224;2024-02-21T07:26:18;10.40;99.90
21895;DHT22;11112;51.270;7.224;2024-02-21T07:28:45;10.40;99.90
21895;DHT22;11112;51.270;7.224;2024-02-21T07:31:14;10.40;99.90
21895;DHT22;11112;51.270;7.224;2024-02-21T07:33:41;10.40;99.90
21895;DHT22;11112;51.270;7.224;2024-02-21T07:36:10;10.40;99.90
21895;DHT22;11112;51.270;7.224;2024-02-21T07:38:37;10.50;99.90
21895;DHT22;11112;51.270;7.224;2024-02-21T07:41:04;10.50;99.90
21895;DHT22;11112;51.270;7.224;2024-02-21T07:43:31;10.50;99.90
21895;DHT22;11112;51.270;7.224;2024-02-21T07:45:58;10.50;99.90
21895;DHT22;11112;51.270;7.224;2024-02-21T07:48:27;10.50;99.90
21895;DHT22;11112;51.270;7.224;2024-02-21T07:50:54;10.50;99.90
21895;DHT22;11112;51.270;7.224;2024-02-21T07:53:21;10.50;99.90
21895;DHT22;11112;51.270;7.224;2024-02-21T07:55:48;10.50;99.90
21895;DHT22;11112;51.270;7.224;2024-02-21T07:58:15;10.50;99.90
21895;DHT22;11112;51.270;7.224;2024-02-21T08:00:42;10.50;99.90
21895;DHT22;11112;51.270;7.224;2024-02-21T08:03:09;10.50;99.90
21895;DHT22;11112;51.270;7.224;2024-02-21T08:05:38;10.50;99.90
21895;DHT22;11112;51.270;7.224;2024-02-21T08:08:05;10.50;99.90
21895;DHT22;11112;51.270;7.224;2024-02-21T08:10:33;10.50;99.90
21895;DHT22;11112;51.270;7.224;2024-02-21T08:13:00;10.50;99.90
21895;DHT22;11112;51.270;7.224;2024-02-21T08:15:27;10.50;99.90
21895;DHT22;11112;51.270;7.224;2024-02-21T08:17:55;10.50;99.90
21895;DHT22;11112;51.270;7.224;2024-02-21T08:20:25;10.50;99.90
21895;DHT22;11112;51.270;7.224;2024-02-21T08:22:53;10.50;99.90
21895;DHT22;11112;51.270;7.224;2024-02-21T08:25:20;10.50;99.90
21895;DHT22;11112;51.270;7.224;2024-02-21T08:27:47;10.50;99.90
21895;DHT22;11112;51.270;7.224;2024-02-21T08:30:15;10.50;99.90
21895;DHT22;11112;51.270;7.224;2024-02-21T08:32:42;10.50;99.90
21895;DHT22;11112;51.270;7.224;2024-02-21T08:35:09;10.50;99.90
21895;DHT22;11112;51.270;7.224;2024-02-21T08:37:37;10.50;99.90
21895;DHT22;11112;51.270;7.224;2024-02-21T08:40:07;10.50;99.90
21895;DHT22;11112;51.270;7.224;2024-02-21T08:42:39;10.50;99.90
21895;DHT22;11112;51.270;7.224;2024-02-21T08:45:08;10.50;99.90
21895;DHT22;11112;51.270;7.224;2024-02-21T08:47:35;10.50;99.90
21895;DHT22;11112;51.270;7.224;2024-02-21T08:50:03;10.50;99.90
21895;DHT22;11112;51.270;7.224;2024-02-21T08:52:32;10.50;99.90
21895;DHT22;11112;51.270;7.224;2024-02-21T08:54:59;10.50;99.90
21895;DHT22;11112;51.270;7.224;2024-02-21T08:57:28;10.50;99.90
21895;DHT22;11112;51.270;7.224;2024-02-21T09:00:03;10.50;99.90
21895;DHT22;11112;51.270;7.224;2024-02-21T09:02:35;10.50;99.90
21895;DHT22;11112;51.270;7.224;2024-02-21T09:05:04;10.40;99.90
21895;DHT22;11112;51.270;7.224;2024-02-21T09:07:32;10.40;99.90
21895;DHT22;11112;51.270;7.224;2024-02-21T09:09:59;10.40;99.90
21895;DHT22;11112;51.270;7.224;2024-02-21T09:12:27;10.40;99.90
21895;DHT22;11112;51.270;7.224;2024-02-21T09:14:54;10.40;99.90
21895;DHT22;11112;51.270;7.224;2024-02-21T09:17:23;10.40;99.90
21895;DHT22;11112;51.270;7.224;2024-02-21T09:19:51;10.40;99.90
21895;DHT22;11112;51.270;7.224;2024-02-21T09:22:18;10.40;99.90
21895;DHT22;11112;51.270;7.224;2024-02-21T09:24:45;10.40;99.90
21895;DHT22;11112;51.270;7.224;2024-02-21T09:27:13;10.40;99.90
21895;DHT22;11112;51.270;7.224;2024-02-21T09:29:41;10.40;99.90
21895;DHT22;11112;51.270;7.224;2024-02-21T09:32:08;10.40;99.90
21895;DHT22;11112;51.270;7.224;2024-02-21T09:34:35;10.40;99.90
21895;DHT22;11112;51.270;7.224;2024-02-21T09:37:02;10.40;99.90
21895;DHT22;11112;51.270;7.224;2024-02-21T09:39:29;10.40;99.90
21895;DHT22;11112;51.270;7.224;2024-02-21T09:41:59;10.40;99.90
21895;DHT22;11112;51.270;7.224;2024-02-21T09:44:36;10.40;99.90
21895;DHT22;11112;51.270;7.224;2024-02-21T09:47:09;10.40;99.90
21895;DHT22;11112;51.270;7.224;2024-02-21T09:49:37;10.40;99.90
21895;DHT22;11112;51.270;7.224;2024-02-21T09:52:07;10.40;99.90
21895;DHT22;11112;51.270;7.224;2024-02-21T09:54:34;10.40;99.90
21895;DHT22;11112;51.270;7.224;2024-02-21T09:57:02;10.40;99.90
21895;DHT22;11112;51.270;7.224;2024-02-21T09:59:31;10.40;99.90
21895;DHT22;11112;51.270;7.224;2024-02-21T10:01:59;10.40;99.90
21895;DHT22;11112;51.270;7.224;2024-02-21T10:04:28;10.40;99.90
21895;DHT22;11112;51.270;7.224;2024-02-21T10:06:55;10.40;99.90
21895;DHT22;11112;51.270;7.224;2024-02-21T10:09:23;10.40;99.90
21895;DHT22;11112;51.270;7.224;2024-02-21T10:11:53;10.40;99.90
21895;DHT22;11112;51.270;7.224;2024-02-21T10:14:21;10.40;99.90
21895;DHT22;11112;51.270;7.224;2024-02-21T10:16:55;10.40;99.90
21895;DHT22;11112;51.270;7.224;2024-02-21T10:19:23;10.40;99.90
21895;DHT22;11112;51.270;7.224;2024-02-21T10:22:03;10.40;99.90
21895;DHT22;11112;51.270;7.224;2024-02-21T10:24:33;10.50;99.90
21895;DHT22;11112;51.270;7.224;2024-02-21T10:27:02;10.50;99.90
21895;DHT22;11112;51.270;7.224;2024-02-21T10:29:30;10.50;99.90
21895;DHT22;11112;51.270;7.224;2024-02-21T10:32:05;10.60;99.90
21895;DHT22;11112;51.270;7.224;2024-02-21T10:34:33;10.60;99.90
21895;DHT22;11112;51.270;7.224;2024-02-21T10:37:03;10.60;99.90
21895;DHT22;11112;51.270;7.224;2024-02-21T10:39:31;10.60;99.90
21895;DHT22;11112;51.270;7.224;2024-02-21T10:42:00;10.60;99.90
21895;DHT22;11112;51.270;7.224;2024-02-21T10:44:30;10.60;99.90
21895;DHT22;11112;51.270;7.224;2024-02-21T10:46:59;10.60;99.90
21895;DHT22;11112;51.270;7.224;2024-02-21T10:49:27;10.60;99.90
21895;DHT22;11112;51.270;7.224;2024-02-21T10:52:05;10.60;99.90
21895;DHT22;11112;51.270;7.224;2024-02-21T10:54:44;10.70;99.90
21895;DHT22;11112;51.270;7.224;2024-02-21T10:57:13;10.70;99.90
21895;DHT22;11112;51.270;7.224;2024-02-21T10:59:40;10.70;99.90
21895;DHT22;11112;51.270;7.224;2024-02-21T11:02:10;10.70;99.90
21895;DHT22;11112;51.270;7.224;2024-02-21T11:04:38;10.80;99.90
21895;DHT22;11112;51.270;7.224;2024-02-21T11:07:08;10.80;99.90
21895;DHT22;11112;51.270;7.224;2024-02-21T11:09:36;10.80;99.90
21895;DHT22;11112;51.270;7.224;2024-02-21T11:12:04;10.80;99.90
21895;DHT22;11112;51.270;7.224;2024-02-21T11:14:32;10.80;99.90
21895;DHT22;11112;51.270;7.224;2024-02-21T11:17:01;10.80;99.90
21895;DHT22;11112;51.270;7.224;2024-02-21T11:19:29;10.80;99.90
21895;DHT22;11112;51.270;7.224;2024-02-21T11:21:57;10.80;99.90
21895;DHT22;11112;51.270;7.224;2024-02-21T11:24:29;10.90;99.90
21895;DHT22;11112;51.270;7.224;2024-02-21T11:27:07;10.90;99.90
21895;DHT22;11112;51.270;7.224;2024-02-21T11:29:40;10.90;99.90
21895;DHT22;11112;51.270;7.224;2024-02-21T11:32:09;10.90;99.90
21895;DHT22;11112;51.270;7.224;2024-02-21T11:34:37;10.90;99.90
21895;DHT22;11112;51.270;7.224;2024-02-21T11:37:13;10.90;99.90
21895;DHT22;11112;51.270;7.224;2024-02-21T11:39:42;11.00;99.90
21895;DHT22;11112;51.270;7.224;2024-02-21T11:42:10;11.00;99.90
21895;DHT22;11112;51.270;7.224;2024-02-21T11:44:38;11.00;99.90
21895;DHT22;11112;51.270;7.224;2024-02-21T11:47:08;10.90;99.90
21895;DHT22;11112;51.270;7.224;2024-02-21T11:49:37;11.00;99.90
21895;DHT22;11112;51.270;7.224;2024-02-21T11:52:05;11.00;99.90
21895;DHT22;11112;51.270;7.224;2024-02-21T11:54:33;11.00;99.90
21895;DHT22;11112;51.270;7.224;2024-02-21T11:57:02;10.90;99.90
21895;DHT22;11112;51.270;7.224;2024-02-21T11:59:30;10.90;99.90
21895;DHT22;11112;51.270;7.224;2024-02-21T12:01:58;11.00;99.90
21895;DHT22;11112;51.270;7.224;2024-02-21T12:04:26;11.00;99.90
21895;DHT22;11112;51.270;7.224;2024-02-21T12:06:54;11.00;99.90
21895;DHT22;11112;51.270;7.224;2024-02-21T12:09:22;11.00;99.90
21895;DHT22;11112;51.270;7.224;2024-02-21T12:11:57;11.00;99.90
21895;DHT22;11112;51.270;7.224;2024-02-21T12:14:27;11.00;99.90
21895;DHT22;11112;51.270;7.224;2024-02-21T12:16:55;11.00;99.90
21895;DHT22;11112;51.270;7.224;2024-02-21T12:19:22;11.00;99.90
21895;DHT22;11112;51.270;7.224;2024-02-21T12:21:50;11.00;99.90
21895;DHT22;11112;51.270;7.224;2024-02-21T12:24:20;11.00;99.90
21895;DHT22;11112;51.270;7.224;2024-02-21T12:26:48;11.00;99.90
21895;DHT22;11112;51.270;7.224;2024-02-21T12:29:16;11.00;99.90
21895;DHT22;11112;51.270;7.224;2024-02-21T12:31:44;11.00;99.90
21895;DHT22;11112;51.270;7.224;2024-02-21T12:34:12;11.10;99.90
21895;DHT22;11112;51.270;7.224;2024-02-21T12:36:42;11.00;99.90
21895;DHT22;11112;51.270;7.224;2024-02-21T12:39:09;10.90;99.90
21895;DHT22;11112;51.270;7.224;2024-02-21T12:41:36;11.00;99.90
21895;DHT22;11112;51.270;7.224;2024-02-21T12:44:04;11.00;99.90
21895;DHT22;11112;51.270;7.224;2024-02-21T12:46:32;11.00;99.90
21895;DHT22;11112;51.270;7.224;2024-02-21T12:49:01;11.00;99.90
21895;DHT22;11112;51.270;7.224;2024-02-21T12:51:28;11.10;99.90
21895;DHT22;11112;51.270;7.224;2024-02-21T12:53:56;11.10;99.90
21895;DHT22;11112;51.270;7.224;2024-02-21T12:56:23;11.10;99.90
21895;DHT22;11112;51.270;7.224;2024-02-21T12:58:51;11.10;99.90
21895;DHT22;11112;51.270;7.224;2024-02-21T13:01:18;11.10;99.90
21895;DHT22;11112;51.270;7.224;2024-02-21T13:03:46;11.00;99.90
21895;DHT22;11112;51.270;7.224;2024-02-21T13:06:15;11.00;99.90
21895;DHT22;11112;51.270;7.224;2024-02-21T13:08:42;10.90;99.90
21895;DHT22;11112;51.270;7.224;2024-02-21T13:11:10;10.90;99.90
21895;DHT22;11112;51.270;7.224;2024-02-21T13:13:37;10.90;99.90
21895;DHT22;11112;51.270;7.224;2024-02-21T13:16:05;10.90;99.90
21895;DHT22;11112;51.270;7.224;2024-02-21T13:18:32;11.00;99.90
21895;DHT22;11112;51.270;7.224;2024-02-21T13:20:59;11.00;99.90
21895;DHT22;11112;51.270;7.224;2024-02-21T13:23:28;11.00;99.90
21895;DHT22;11112;51.270;7.224;2024-02-21T13:25:55;11.00;99.90
21895;DHT22;11112;51.270;7.224;2024-02-21T13:28:21;11.00;99.90
21895;DHT22;11112;51.270;7.224;2024-02-21T13:30:48;11.10;99.90
21895;DHT22;11112;51.270;7.224;2024-02-21T13:33:16;11.10;99.90
21895;DHT22;11112;51.270;7.224;2024-02-21T13:35:43;11.10;99.90
21895;DHT22;11112;51.270;7.224;2024-02-21T13:38:10;11.10;99.90
21895;DHT22;11112;51.270;7.224;2024-02-21T13:40:39;11.20;99.90
21895;DHT22;11112;51.270;7.224;2024-02-21T13:43:07;11.10;99.90
21895;DHT22;11112;51.270;7.224;2024-02-21T13:45:34;11.20;99.90
21895;DHT22;11112;51.270;7.224;2024-02-21T13:48:02;11.20;99.90
21895;DHT22;11112;51.270;7.224;2024-02-21T13:50:31;11.20;99.90
21895;DHT22;11112;51.270;7.224;2024-02-21T13:53:07;11.20;99.90
21895;DHT22;11112;51.270;7.224;2024-02-21T13:55:35;11.30;99.90
21895;DHT22;11112;51.270;7.224;2024-02-21T13:58:03;11.30;99.90
21895;DHT22;11112;51.270;7.224;2024-02-21T14:00:31;11.30;99.90
21895;DHT22;11112;51.270;7.224;2024-02-21T14:03:00;11.30;99.90
21895;DHT22;11112;51.270;7.224;2024-02-21T14:05:27;11.20;99.90
21895;DHT22;11112;51.270;7.224;2024-02-21T14:07:55;11.30;99.90
21895;DHT22;11112;51.270;7.224;2024-02-21T14:10:22;11.20;99.90
21895;DHT22;11112;51.270;7.224;2024-02-21T14:12:49;11.30;99.90
21895;DHT22;11112;51.270;7.224;2024-02-21T14:15:18;11.30;99.90
21895;DHT22;11112;51.270;7.224;2024-02-21T14:17:45;11.30;99.90
21895;DHT22;11112;51.270;7.224;2024-02-21T14:20:12;11.30;99.90
21895;DHT22;11112;51.270;7.224;2024-02-21T14:22:40;11.30;99.90
21895;DHT22;11112;51.270;7.224;2024-02-21T14:25:08;11.30;99.90
21895;DHT22;11112;51.270;7.224;2024-02-21T14:27:35;11.30;99.90
21895;DHT22;11112;51.270;7.224;2024-02-21T14:30:03;11.30;99.90
21895;DHT22;11112;51.270;7.224;2024-02-21T14:32:32;11.30;99.90
21895;DHT22;11112;51.270;7.224;2024-02-21T14:34:59;11.30;99.90
21895;DHT22;11112;51.270;7.224;2024-02-21T14:37:26;11.30;99.90
21895;DHT22;11112;51.270;7.224;2024-02-21T14:39:53;11.30;99.90
21895;DHT22;11112;51.270;7.224;2024-02-21T14:42:20;11.30;99.90
21895;DHT22;11112;51.270;7.224;2024-02-21T14:44:47;11.30;99.90
21895;DHT22;11112;51.270;7.224;2024-02-21T14:47:14;11.30;99.90
21895;DHT22;11112;51.270;7.224;2024-02-21T14:49:42;11.40;99.90
21895;DHT22;11112;51.270;7.224;2024-02-21T14:52:10;11.40;99.90
21895;DHT22;11112;51.270;7.224;2024-02-21T14:54:37;11.40;99.90
21895;DHT22;11112;51.270;7.224;2024-02-21T14:57:06;11.40;99.90
21895;DHT22;11112;51.270;7.224;2024-02-21T14:59:33;11.40;99.90
21895;DHT22;11112;51.270;7.224;2024-02-21T15:02:00;11.40;99.90
21895;DHT22;11112;51.270;7.224;2024-02-21T15:04:28;11.40;99.90
21895;DHT22;11112;51.270;7.224;2024-02-21T15:06:57;11.40;99.90
21895;DHT22;11112;51.270;7.224;2024-02-21T15:09:25;11.40;99.90
21895;DHT22;11112;51.270;7.224;2024-02-21T15:11:53;11.40;99.90
21895;DHT22;11112;51.270;7.224;2024-02-21T15:14:20;11.40;99.90
21895;DHT22;11112;51.270;7.224;2024-02-21T15:16:47;11.40;99.90
21895;DHT22;11112;51.270;7.224;2024-02-21T15:19:14;11.40;99.90
21895;DHT22;11112;51.270;7.224;2024-02-21T15:21:41;11.30;99.90
21895;DHT22;11112;51.270;7.224;2024-02-21T15:24:09;11.40;99.90
21895;DHT22;11112;51.270;7.224;2024-02-21T15:26:37;11.40;99.90
21895;DHT22;11112;51.270;7.224;2024-02-21T15:29:04;11.40;99.90
21895;DHT22;11112;51.270;7.224;2024-02-21T15:31:31;11.40;99.90
21895;DHT22;11112;51.270;7.224;2024-02-21T15:33:58;11.30;99.90